• Join FlightAware (Why Join?)
  • Login
  • US Flag 
11:19AM EDT


 

Airport Tracker/Info


-or-


 

Live Flight TrackerFlight Track Log ✈ AWI4029 ✈ 14-Aug-2013 ✈ KALB - KPHL

Flight Track Log - Related Links

Times and Time Zones

All times are in EDT time to prevent confusion due to time zone crossing. See the AWI4029 flight status page for this flight to view local times or setup timezone preferences in your user account.

Time Position Orientation Groundspeed Altitude Reporting Facility
EDT Latitude Longitude Course Direction KTS MPH feet Rate Location/Type
05:32AM 42.7631 -73.8061 220° Southwest 159 183 1,100  Level Boston Center
05:32AM 42.7964 -73.8097 355° North 172 198 2,800 2,160 Climbing Boston Center
05:34AM 42.7334 -74.1719 270° West  Level FlightAware Approximate
05:34AM 42.8078 -73.8975 280° West 222 255 5,500  Level Boston Center
05:35AM 42.7333 -74.2959 270° West  Level FlightAware Approximate
05:35AM 42.7942 -73.9906 259° West 245 282 7,800  Level Boston Center
05:36AM 42.6717 -74.3840 220° Southwest  Level FlightAware Approximate
05:36AM 42.7472 -74.0686 231° Southwest 250 288 10,200  Level Boston Center
05:37AM 42.6016 -74.4629 220° Southwest  Level FlightAware Approximate
05:37AM 42.6939 -74.1464 227° Southwest 272 313 12,700  Level Boston Center
05:38AM 42.6383 -74.2381 231° Southwest 284 327 15,500 1,620 Climbing Boston Center
05:39AM 42.5914 -74.3128 230° Southwest 290 334 16,000 120 Climbing Boston Center
05:40AM 42.4900 -74.4742 230° Southwest 293 337 16,000  Level New York Center
05:41AM 42.4308 -74.5664 229° Southwest 305 351 16,000  Level New York Center
05:42AM 42.3719 -74.6553 228° Southwest 321 369 16,000  Level New York Center
05:43AM 42.3147 -74.7444 229° Southwest 321 369 16,000  Level New York Center
05:44AM 42.2578 -74.8336 229° Southwest 321 369 16,000  Level New York Center
05:45AM 42.1983 -74.9250 229° Southwest 321 369 16,000  Level New York Center
05:46AM 42.1203 -75.0094 219° Southwest 326 375 16,000  Level New York Center
05:47AM 42.0411 -75.0742 211° Southwest 336 387 16,000  Level New York Center
05:48AM 41.9639 -75.1361 211° Southwest 336 387 16,000  Level New York Center
05:49AM 41.8953 -75.1928 212° Southwest 336 387 16,000 -480 Level New York Center
05:50AM 41.8200 -75.2519 210° Southwest 326 375 15,100 -1,080 Descending New York Center
05:51AM 41.7361 -75.3214 212° Southwest 326 375 13,900 -1,140 Descending New York Center
05:52AM 41.6589 -75.3853 212° Southwest 326 375 12,900 -900 Descending New York Center
05:53AM 41.5794 -75.4464 210° Southwest 326 375 12,100 -420 Descending New York Center
05:54AM 41.5083 -75.5053 212° Southwest 332 382 12,100  Level New York Center
05:55AM 41.4289 -75.5661 210° Southwest 332 382 12,100  Level New York Center
05:56AM 41.3406 -75.6344 210° Southwest 326 375 12,100  Level New York Center
05:57AM 41.2572 -75.6864 205° Southwest 326 375 12,100 -360 Level New York Center
05:58AM 41.1600 -75.6708 173° South 333 383 11,400 -900 Descending New York Center
05:59AM 41.0614 -75.6364 165° South 354 407 10,400 -720 Descending New York Center
06:00AM 40.9689 -75.6078 167° South 355 409 10,000 -240 Descending New York Center
06:01AM 40.8825 -75.5769 165° South 345 397 10,000  Level New York Center
06:02AM 40.8044 -75.5494 165° South 328 377 10,000  Level New York Center
06:03AM 40.7142 -75.5183 165° South 316 364 10,000  Level New York Center
06:04AM 40.6339 -75.4939 167° South 311 358 10,000  Level New York Center
06:05AM 40.5517 -75.4661 166° South 306 352 10,000  Level New York Center
06:06AM 40.4856 -75.4453 167° South 306 352 10,000 -660 Level New York Center
06:07AM 40.4008 -75.3797 149° Southeast 301 346 8,800 -1,320 Descending New York Center
06:08AM 40.3367 -75.3156 143° Southeast 296 341 7,400 -1,320 Descending New York Center
06:09AM 40.2703 -75.2486 142° Southeast 296 341 6,100 -1,200 Descending New York Center
06:10AM 40.2100 -75.1903 144° Southeast 301 346 5,100 -1,320 Descending New York Center
06:11AM 40.1331 -75.1311 150° Southeast 294 338 3,600 -1,020 Descending New York Center
06:12AM 40.0672 -75.1081 165° South 270 311 3,100 -540 Descending New York Center
06:14AM 39.9833 -75.1000 176° South 233 268 2,500 -660 Descending Philadelphia TRACON
06:15AM 39.9333 -75.1333 207° Southwest 202 232 1,700 -780 Descending Philadelphia TRACON
06:16AM 39.9000 -75.1667 217° Southwest 135 155 900 -840 Descending Philadelphia TRACON
06:17AM 39.8833 -75.2167 247° West 145 167 100 -840 Descending Philadelphia TRACON